Main page
METAR-TAF:

METAR-TAF

Airports :

Rome-Fiumicino, Italy

Leonardo da Vinci–Fiumicino Airport

latitude: 41-48N, longitude: 012-14E, elevation: 2 m

Current weather observation

The report was made 33 minutes ago, at 04:50 UTC
Wind 4 kt from the North
Temperature 6°C
Humidity 100%
Pressure 1020 hPa
Visibility: 0800 m
Shallow fog

METAR: LIRF 260450Z 36004KT 9999 0800E R16L/P1500N R16R/0900VP1500U R25/1500VP1500 MIFG NSC 06/06 Q1020 NOSIG

Time: 07:23 (05:23 UTC)

Forecast

The report was made 6 hours and 23 minutes ago, at 23:00 UTC
Forecast valid from 26 at 00 UTC to 27 at 06 UTC
Wind 5 kt from variable directions
Visibility: 8000 m
Scattered clouds at a height of 2500 ft
Temporary
from 26 at 00 UTC to 26 at 06 UTC
rain
Becoming
from 26 at 04 UTC to 26 at 06 UTC
Wind 12 kt from the Northwest
Becoming
from 26 at 17 UTC to 26 at 19 UTC
Wind 5 kt from variable directions

TAF: LIRF 252300Z 2600/2706 VRB05KT 8000 SCT025 TEMPO 2600/2606 RA BECMG 2604/2606 31012KT BECMG 2617/2619 VRB05KT

Weather observations and forecasts of more than 4000 airports (METAR and TAF reports).

The available stations are represented by yellow and red dots on the map.

Hover mouse over dot to see the name of the station.

Then click to see weather observations and forecasts.

To change the map : click on the green buttons with a black cross to zoom in, on the green button with a dash to zoom out, or on the green arrows for adjacent maps.


METAR-TAF: